NC61 weather

Blackwater Airstrip
Moyock, North Carolina, United States

Public forecast

Using degrees Fahrenheit for public forecast. Weather courtesy of forecast.io.

METAR (pilot weather report)

Closest report is Currituck County Regional Airport, 10.1 nm (18.7 km) ESE. Retrieved 2019/04/19 13:40 UTC (15 minutes ago):

KONX 191340Z AUTO 10SM SCT075 24/19 A2988 RMK AO2 T02360186

TAF (pilot weather forecast)

Closest forecast is Elizabeth City Regional Airport & Coast Guard Air Station, 12.1 nm (22.3 km) S. Retrieved 2019/04/19 12:24 UTC (2 hours ago):

TAF TAF KECG 191120Z 1912/2012 17013G18KT P6SM OVC070 FM191500 18019G30KT P6SM VCSH OVC040 FM191800 18020G34KT P6SM SHRA SCT015 OVC040 FM200300 18020G30KT 5SM TSRA OVC020CB